createdAt,value
2023-02-18T00:01:35.040Z,95872.84
2023-02-18T00:04:01.810Z,95863.53
2023-02-18T00:06:31.607Z,95846.50
2023-02-18T00:09:02.125Z,95867.78
2023-02-18T00:11:31.049Z,95869.06
2023-02-18T00:14:00.368Z,95866.69
2023-02-18T00:16:28.154Z,95854.25
2023-02-18T00:18:57.005Z,95849.22
2023-02-18T00:21:24.660Z,95841.16
2023-02-18T00:23:51.979Z,95844.91
2023-02-18T00:26:19.538Z,95832.00
2023-02-18T00:28:48.665Z,95826.41
2023-02-18T00:31:19.491Z,95821.47
2023-02-18T00:33:46.784Z,95823.66
2023-02-18T00:36:15.865Z,95815.28
2023-02-18T00:38:56.814Z,95807.81
2023-02-18T00:41:25.767Z,95780.22
2023-02-18T00:43:52.756Z,95803.75
2023-02-18T00:46:20.844Z,95816.41
2023-02-18T00:48:47.725Z,95802.09
2023-02-18T00:51:14.594Z,95804.66
2023-02-18T00:53:41.424Z,95816.81
2023-02-18T00:56:08.781Z,95817.00
2023-02-18T00:58:36.748Z,95819.59
2023-02-18T01:01:07.673Z,95818.94
2023-02-18T01:03:35.922Z,95813.09
2023-02-18T01:06:03.335Z,95820.91
2023-02-18T01:08:30.291Z,95818.38
2023-02-18T01:10:59.404Z,95818.56
2023-02-18T01:13:29.585Z,95816.94
2023-02-18T01:15:56.353Z,95794.72
2023-02-18T01:18:24.688Z,95809.22
2023-02-18T01:20:52.738Z,95827.06
2023-02-18T01:23:21.130Z,95826.03
2023-02-18T01:25:49.923Z,95810.97
2023-02-18T01:28:17.160Z,95810.16
2023-02-18T01:30:44.058Z,95817.91
2023-02-18T01:33:11.155Z,95806.59
2023-02-18T01:35:41.705Z,95810.53
2023-02-18T01:38:09.526Z,95796.78
2023-02-18T01:40:37.171Z,95815.78
2023-02-18T01:43:04.199Z,95814.31
2023-02-18T01:45:33.830Z,95811.75
2023-02-18T01:48:05.416Z,95817.31
2023-02-18T01:50:34.660Z,95823.97
2023-02-18T01:53:02.913Z,95832.44
2023-02-18T01:55:31.908Z,95835.09
2023-02-18T01:57:58.817Z,95835.19
2023-02-18T02:00:25.740Z,95826.91
2023-02-18T02:02:53.597Z,95833.53
2023-02-18T02:05:21.960Z,95839.56
2023-02-18T02:07:52.155Z,95818.13
2023-02-18T02:10:19.398Z,95817.91
2023-02-18T02:13:05.375Z,95810.44
2023-02-18T02:15:48.373Z,95814.31
2023-02-18T02:18:36.788Z,95814.63
2023-02-18T02:21:07.682Z,95826.19
2023-02-18T02:24:14.416Z,95823.91
2023-02-18T02:27:07.549Z,95820.81
2023-02-18T02:29:46.655Z,95819.50
2023-02-18T02:32:31.769Z,95820.53
2023-02-18T02:34:58.989Z,95806.88
2023-02-18T02:37:31.621Z,95806.34
2023-02-18T02:40:07.394Z,95811.56
2023-02-18T02:43:06.489Z,95813.56
2023-02-18T02:45:33.340Z,95804.34
2023-02-18T02:48:23.306Z,95800.25
2023-02-18T02:51:02.034Z,95793.09
2023-02-18T02:53:33.770Z,95793.34
2023-02-18T02:56:00.692Z,95797.25
2023-02-18T02:58:28.868Z,95814.34
2023-02-18T03:01:16.613Z,95813.59
2023-02-18T03:03:59.110Z,95823.97
2023-02-18T03:06:38.110Z,95821.06
2023-02-18T03:09:16.779Z,95813.31
2023-02-18T03:12:24.044Z,95808.31
2023-02-18T03:15:01.659Z,95800.41
2023-02-18T03:17:46.297Z,95789.91
2023-02-18T03:20:21.161Z,95808.28
2023-02-18T03:22:51.207Z,95810.91
2023-02-18T03:25:19.013Z,95825.56
2023-02-18T03:28:15.325Z,95838.75
2023-02-18T03:30:48.111Z,95842.63
2023-02-18T03:33:20.701Z,95847.75
2023-02-18T03:35:49.640Z,95859.28
2023-02-18T03:38:24.927Z,95851.97
2023-02-18T03:40:52.453Z,95852.81
2023-02-18T03:43:19.332Z,95868.03
2023-02-18T03:45:46.297Z,95863.03
2023-02-18T03:48:13.194Z,95864.06
2023-02-18T03:50:40.017Z,95860.44
2023-02-18T03:53:06.742Z,95876.56
2023-02-18T03:55:33.638Z,95869.00
2023-02-18T03:58:00.258Z,95866.25
2023-02-18T04:00:27.154Z,95871.03
2023-02-18T04:02:53.854Z,95870.03
2023-02-18T04:05:20.966Z,95862.25
2023-02-18T04:07:47.923Z,95861.44
2023-02-18T04:10:14.678Z,95860.25
2023-02-18T04:12:41.580Z,95855.84
2023-02-18T04:15:08.731Z,95859.34
2023-02-18T04:17:35.465Z,95833.66
2023-02-18T04:20:03.540Z,95842.78
2023-02-18T04:22:30.429Z,95844.03
2023-02-18T04:24:57.382Z,95840.06
2023-02-18T04:27:25.205Z,95837.25
2023-02-18T04:29:52.709Z,95828.84
2023-02-18T04:32:19.483Z,95835.63
2023-02-18T04:34:46.193Z,95826.47
2023-02-18T04:37:13.062Z,95823.81
2023-02-18T04:39:39.766Z,95806.66
2023-02-18T04:42:09.204Z,95833.69
2023-02-18T04:44:37.583Z,95836.41
2023-02-18T04:47:05.730Z,95840.03
2023-02-18T04:49:32.802Z,95843.28
2023-02-18T04:51:59.618Z,95843.22
2023-02-18T04:54:26.499Z,95835.94
2023-02-18T04:56:53.286Z,95846.75
2023-02-18T04:59:20.014Z,95849.19
2023-02-18T05:01:46.768Z,95851.56
2023-02-18T05:04:13.580Z,95847.13
2023-02-18T05:06:40.625Z,95860.03
2023-02-18T05:09:07.374Z,95864.34
2023-02-18T05:11:34.180Z,95851.81
2023-02-18T05:14:00.983Z,95838.34
2023-02-18T05:16:27.922Z,95833.69
2023-02-18T05:18:54.724Z,95850.22
2023-02-18T05:21:21.657Z,95851.03
2023-02-18T05:23:48.479Z,95838.81
2023-02-18T05:26:17.420Z,95837.03
2023-02-18T05:28:44.158Z,95837.81
2023-02-18T05:31:10.974Z,95842.59
2023-02-18T05:33:37.849Z,95839.31
2023-02-18T05:36:06.095Z,95841.06
2023-02-18T05:38:33.075Z,95838.66
2023-02-18T05:40:59.920Z,95850.06
2023-02-18T05:43:26.974Z,95847.94
2023-02-18T05:45:53.666Z,95835.47
2023-02-18T05:48:20.386Z,95848.41
2023-02-18T05:50:47.217Z,95835.38
2023-02-18T05:53:15.113Z,95845.88
2023-02-18T05:55:42.832Z,95854.47
2023-02-18T05:58:09.732Z,95868.47
2023-02-18T06:00:36.624Z,95836.38
2023-02-18T06:03:03.482Z,95866.06
2023-02-18T06:05:30.445Z,95854.28
2023-02-18T06:07:57.136Z,95864.34
2023-02-18T06:10:24.081Z,95862.53
2023-02-18T06:12:50.960Z,95858.91
2023-02-18T06:15:18.081Z,95844.34
2023-02-18T06:17:44.808Z,95859.41
2023-02-18T06:20:12.062Z,95849.16
2023-02-18T06:22:38.850Z,95821.84
2023-02-18T06:25:07.128Z,95841.44
2023-02-18T06:27:33.841Z,95851.31
2023-02-18T06:30:00.770Z,95854.25
2023-02-18T06:32:27.589Z,95852.28
2023-02-18T06:34:54.380Z,95852.41
2023-02-18T06:37:21.182Z,95839.63
2023-02-18T06:39:47.996Z,95846.78
2023-02-18T06:42:14.722Z,95853.56
2023-02-18T06:44:41.730Z,95844.66
2023-02-18T06:47:08.571Z,95842.78
2023-02-18T06:49:36.537Z,95841.63
2023-02-18T06:52:03.408Z,95833.81
2023-02-18T06:54:30.108Z,95837.91
2023-02-18T06:56:57.043Z,95825.66
2023-02-18T06:59:23.943Z,95837.50
2023-02-18T07:01:50.700Z,95845.25
2023-02-18T07:04:17.553Z,95842.63
2023-02-18T07:06:44.324Z,95837.25
2023-02-18T07:09:11.398Z,95833.88
2023-02-18T07:11:38.188Z,95841.84
2023-02-18T07:14:06.835Z,95837.44
2023-02-18T07:16:34.842Z,95818.00
2023-02-18T07:19:01.836Z,95820.41
2023-02-18T07:21:29.546Z,95830.03
2023-02-18T07:23:56.413Z,95823.44
2023-02-18T07:26:23.169Z,95814.22
2023-02-18T07:28:49.986Z,95819.47
2023-02-18T07:31:17.788Z,95826.09
2023-02-18T07:33:44.711Z,95832.22
2023-02-18T07:36:11.520Z,95822.78
2023-02-18T07:38:38.413Z,95832.22
2023-02-18T07:41:05.622Z,95845.41
2023-02-18T07:43:32.474Z,95844.97
2023-02-18T07:45:59.248Z,95836.75
2023-02-18T07:48:26.195Z,95844.19
2023-02-18T07:50:53.019Z,95831.09
2023-02-18T07:53:20.941Z,95839.06
2023-02-18T07:55:50.650Z,95835.28
2023-02-18T07:58:22.292Z,95843.56
2023-02-18T08:00:50.452Z,95841.44
2023-02-18T08:03:18.367Z,95827.78
2023-02-18T08:05:45.513Z,95841.00
2023-02-18T08:08:14.653Z,95840.63
2023-02-18T08:10:41.986Z,95838.78
2023-02-18T08:13:10.260Z,95831.22
2023-02-18T08:15:37.378Z,95821.00
2023-02-18T08:18:04.735Z,95828.53
2023-02-18T08:20:31.755Z,95808.00
2023-02-18T08:22:58.464Z,95818.06
2023-02-18T08:25:29.821Z,95812.69
2023-02-18T08:27:57.149Z,95822.16
2023-02-18T08:30:23.994Z,95820.09
2023-02-18T08:32:50.700Z,95813.22
2023-02-18T08:35:18.132Z,95823.72
2023-02-18T08:37:52.442Z,95808.63
2023-02-18T08:40:21.164Z,95801.44
2023-02-18T08:42:47.952Z,95792.72
2023-02-18T08:45:14.847Z,95792.00
2023-02-18T08:48:17.157Z,95803.00
2023-02-18T08:50:28.485Z,95799.16
2023-02-18T08:52:56.391Z,95808.41
2023-02-18T08:55:24.207Z,95808.25
2023-02-18T08:57:50.955Z,95788.38
2023-02-18T09:00:18.253Z,95790.78
2023-02-18T09:02:45.127Z,95796.09
2023-02-18T09:05:12.521Z,95790.78
2023-02-18T09:07:39.380Z,95796.59
2023-02-18T09:10:07.564Z,95789.44
2023-02-18T09:12:34.865Z,95794.28
2023-02-18T09:15:04.849Z,95801.47
2023-02-18T09:17:31.714Z,95793.06
2023-02-18T09:19:58.614Z,95803.88
2023-02-18T09:22:25.455Z,95807.56
2023-02-18T09:24:53.226Z,95796.50
2023-02-18T09:27:20.022Z,95778.34
2023-02-18T09:29:46.872Z,95794.19
2023-02-18T09:32:20.002Z,95782.56
2023-02-18T09:34:53.348Z,95769.75
2023-02-18T09:37:20.267Z,95770.91
2023-02-18T09:39:48.435Z,95773.41
2023-02-18T09:42:20.909Z,95762.06
2023-02-18T09:44:52.697Z,95771.50
2023-02-18T09:47:37.160Z,95764.81
2023-02-18T09:50:11.565Z,95769.84
2023-02-18T09:52:39.444Z,95769.59
2023-02-18T09:55:27.474Z,95780.72
2023-02-18T09:58:03.025Z,95772.22
2023-02-18T10:00:36.891Z,95769.06
2023-02-18T10:03:17.692Z,95765.03
2023-02-18T10:06:02.873Z,95759.28
2023-02-18T10:08:47.272Z,95752.97
2023-02-18T10:11:29.737Z,95742.91
2023-02-18T10:14:00.987Z,95734.41
2023-02-18T10:16:28.328Z,95722.16
2023-02-18T10:18:58.582Z,95727.69
2023-02-18T10:21:30.590Z,95726.34
2023-02-18T10:24:30.290Z,95726.00
2023-02-18T10:27:15.802Z,95719.38
2023-02-18T10:29:42.599Z,95723.94
2023-02-18T10:32:37.924Z,95712.97
2023-02-18T10:35:24.149Z,95717.00
2023-02-18T10:38:15.142Z,95709.06
2023-02-18T10:41:01.027Z,95705.59
2023-02-18T10:43:27.835Z,95688.41
2023-02-18T10:46:13.590Z,95686.13
2023-02-18T10:48:51.754Z,95682.28
2023-02-18T10:51:25.999Z,95664.44
2023-02-18T10:53:54.194Z,95664.41
2023-02-18T10:57:04.731Z,95674.75
2023-02-18T10:59:33.609Z,95665.34
2023-02-18T11:02:03.985Z,95671.09
2023-02-18T11:04:42.889Z,95644.84
2023-02-18T11:07:16.506Z,95659.91
2023-02-18T11:09:47.614Z,95661.56
2023-02-18T11:12:20.354Z,95631.84
2023-02-18T11:14:50.301Z,95640.53
2023-02-18T11:17:27.157Z,95628.47
2023-02-18T11:19:59.101Z,95624.56
2023-02-18T11:22:33.156Z,95617.91
2023-02-18T11:25:02.247Z,95620.19
2023-02-18T11:27:42.412Z,95603.19
2023-02-18T11:30:25.865Z,95605.84
2023-02-18T11:33:07.184Z,95608.91
2023-02-18T11:35:35.401Z,95602.69
2023-02-18T11:38:04.727Z,95603.31
2023-02-18T11:40:35.662Z,95575.19
2023-02-18T11:43:22.851Z,95589.91
2023-02-18T11:46:18.456Z,95578.09
2023-02-18T11:48:46.553Z,95583.00
2023-02-18T11:51:28.649Z,95581.19
2023-02-18T11:54:04.493Z,95569.09
2023-02-18T11:56:36.245Z,95562.22
2023-02-18T11:59:04.514Z,95557.44
2023-02-18T12:01:51.950Z,95551.66
2023-02-18T12:04:28.965Z,95549.88
2023-02-18T12:07:12.659Z,95533.09
2023-02-18T12:09:46.151Z,95528.69
2023-02-18T12:12:33.509Z,95535.72
2023-02-18T12:15:00.440Z,95520.13
2023-02-18T12:17:33.185Z,95526.78
2023-02-18T12:20:51.562Z,95518.38
2023-02-18T12:23:31.610Z,95519.84
2023-02-18T12:26:10.407Z,95522.03
2023-02-18T12:28:55.135Z,95524.75
2023-02-18T12:31:39.834Z,95508.47
2023-02-18T12:34:24.995Z,95512.56
2023-02-18T12:37:00.452Z,95504.63
2023-02-18T12:39:49.587Z,95500.06
2023-02-18T12:42:50.406Z,95491.50
2023-02-18T12:45:47.807Z,95487.56
2023-02-18T12:48:23.542Z,95482.28
2023-02-18T12:51:02.244Z,95480.56
2023-02-18T12:53:58.221Z,95473.03
2023-02-18T12:56:55.933Z,95472.94
2023-02-18T12:59:43.757Z,95471.81
2023-02-18T13:02:31.314Z,95445.88
2023-02-18T13:05:12.523Z,95473.00
2023-02-18T13:07:42.052Z,95467.41
2023-02-18T13:10:24.282Z,95481.38
2023-02-18T13:13:19.810Z,95473.97
2023-02-18T13:16:00.107Z,95475.16
2023-02-18T13:18:38.410Z,95471.00
2023-02-18T13:21:09.352Z,95463.13
2023-02-18T13:23:42.678Z,95461.81
2023-02-18T13:26:13.783Z,95473.03
2023-02-18T13:28:52.835Z,95475.09
2023-02-18T13:31:28.454Z,95472.09
2023-02-18T13:34:20.175Z,95482.47
2023-02-18T13:37:24.383Z,95481.19
2023-02-18T13:39:55.581Z,95479.50
2023-02-18T13:42:31.645Z,95486.00
2023-02-18T13:44:58.455Z,95482.34
2023-02-18T13:47:46.940Z,95478.34
2023-02-18T13:50:23.154Z,95481.00
2023-02-18T13:52:51.435Z,95473.41
2023-02-18T13:55:23.906Z,95459.03
2023-02-18T13:57:54.849Z,95473.72
2023-02-18T14:00:34.054Z,95467.31
2023-02-18T14:03:22.110Z,95475.34
2023-02-18T14:05:49.050Z,95477.00
2023-02-18T14:08:39.554Z,95467.03
2023-02-18T14:11:12.305Z,95469.69
2023-02-18T14:13:49.632Z,95476.34
2023-02-18T14:16:16.572Z,95476.31
2023-02-18T14:18:43.156Z,95479.16
2023-02-18T14:21:12.826Z,95484.50
2023-02-18T14:23:45.429Z,95488.50
2023-02-18T14:26:15.147Z,95480.53
2023-02-18T14:28:47.908Z,95477.41
2023-02-18T14:31:31.038Z,95492.28
2023-02-18T14:34:01.090Z,95493.34
2023-02-18T14:36:43.017Z,95489.22
2023-02-18T14:39:48.770Z,95486.34
2023-02-18T14:42:42.809Z,95476.50
2023-02-18T14:45:10.041Z,95481.84
2023-02-18T14:47:45.726Z,95482.13
2023-02-18T14:50:16.645Z,95480.88
2023-02-18T14:52:57.389Z,95480.38
2023-02-18T14:55:28.561Z,95470.91
2023-02-18T14:58:06.523Z,95474.53
2023-02-18T15:00:42.014Z,95477.38
2023-02-18T15:03:13.968Z,95476.22
2023-02-18T15:05:40.985Z,95466.91
2023-02-18T15:08:16.462Z,95468.28
2023-02-18T15:10:49.188Z,95469.59
2023-02-18T15:13:37.187Z,95465.66
2023-02-18T15:16:08.480Z,95456.66
2023-02-18T15:18:46.969Z,95475.50
2023-02-18T15:21:24.583Z,95473.72
2023-02-18T15:23:52.336Z,95465.09
2023-02-18T15:26:21.043Z,95470.50
2023-02-18T15:29:05.672Z,95449.19
2023-02-18T15:31:38.751Z,95458.50
2023-02-18T15:34:24.360Z,95466.53
2023-02-18T15:36:53.242Z,95457.13
2023-02-18T15:39:19.991Z,95454.31
2023-02-18T15:41:47.771Z,95448.94
2023-02-18T15:44:22.541Z,95456.44
2023-02-18T15:46:49.657Z,95450.13
2023-02-18T15:49:20.873Z,95440.06
2023-02-18T15:51:48.684Z,95450.19
2023-02-18T15:54:20.092Z,95438.13
2023-02-18T15:56:51.795Z,95432.13
2023-02-18T15:59:33.340Z,95440.84
2023-02-18T16:02:16.553Z,95436.03
2023-02-18T16:04:48.771Z,95425.50
2023-02-18T16:07:26.767Z,95438.16
2023-02-18T16:10:15.918Z,95436.22
2023-02-18T16:12:48.538Z,95436.81
2023-02-18T16:15:23.353Z,95444.13
2023-02-18T16:17:50.424Z,95446.22
2023-02-18T16:20:29.001Z,95444.84
2023-02-18T16:22:59.309Z,95437.69
2023-02-18T16:25:47.019Z,95454.03
2023-02-18T16:28:24.037Z,95460.06
2023-02-18T16:30:50.980Z,95454.09
2023-02-18T16:33:17.835Z,95451.53
2023-02-18T16:35:50.569Z,95441.97
2023-02-18T16:38:20.303Z,95460.91
2023-02-18T16:40:47.429Z,95470.38
2023-02-18T16:43:19.870Z,95452.78
2023-02-18T16:45:57.015Z,95468.50
2023-02-18T16:48:31.543Z,95469.81
2023-02-18T16:51:06.755Z,95466.66
2023-02-18T16:53:33.796Z,95461.47
2023-02-18T16:56:01.954Z,95453.63
2023-02-18T16:58:29.258Z,95462.50
2023-02-18T17:00:56.419Z,95462.16
2023-02-18T17:03:26.096Z,95458.19
2023-02-18T17:05:52.864Z,95456.56
2023-02-18T17:08:24.642Z,95453.03
2023-02-18T17:10:56.466Z,95466.19
2023-02-18T17:13:32.358Z,95460.53
2023-02-18T17:15:59.551Z,95464.84
2023-02-18T17:18:26.671Z,95448.97
2023-02-18T17:20:54.418Z,95448.03
2023-02-18T17:23:23.283Z,95460.00
2023-02-18T17:25:51.598Z,95422.72
2023-02-18T17:28:21.615Z,95448.97
2023-02-18T17:30:56.409Z,95457.72
2023-02-18T17:33:25.549Z,95462.81
2023-02-18T17:35:52.541Z,95454.06
2023-02-18T17:38:20.004Z,95448.03
2023-02-18T17:40:48.800Z,95451.25
2023-02-18T17:43:17.315Z,95447.94
2023-02-18T17:45:49.673Z,95452.34
2023-02-18T17:48:16.710Z,95453.59
2023-02-18T17:50:43.580Z,95453.06
2023-02-18T17:53:14.289Z,95450.44
2023-02-18T17:55:42.725Z,95440.91
2023-02-18T17:58:10.714Z,95438.03
2023-02-18T18:00:46.853Z,95449.03
2023-02-18T18:03:14.322Z,95440.78
2023-02-18T18:05:43.819Z,95451.59
2023-02-18T18:08:10.946Z,95453.97
2023-02-18T18:10:59.299Z,95450.09
2023-02-18T18:13:34.900Z,95463.69
2023-02-18T18:16:01.652Z,95453.91
2023-02-18T18:18:28.613Z,95438.91
2023-02-18T18:20:59.341Z,95440.97
2023-02-18T18:23:26.341Z,95455.69
2023-02-18T18:25:58.212Z,95443.16
2023-02-18T18:28:26.898Z,95443.09
2023-02-18T18:30:56.028Z,95449.97
2023-02-18T18:33:24.587Z,95453.41
2023-02-18T18:35:52.900Z,95456.59
2023-02-18T18:38:21.450Z,95438.53
2023-02-18T18:40:48.823Z,95432.72
2023-02-18T18:43:26.978Z,95447.03
2023-02-18T18:45:54.399Z,95440.75
2023-02-18T18:48:22.529Z,95443.91
2023-02-18T18:50:51.378Z,95424.66
2023-02-18T18:53:25.469Z,95448.09
2023-02-18T18:55:55.023Z,95431.50
2023-02-18T18:58:24.441Z,95425.63
2023-02-18T19:01:03.322Z,95453.69
2023-02-18T19:03:33.496Z,95436.88
2023-02-18T19:06:00.263Z,95435.88
2023-02-18T19:08:27.167Z,95436.16
2023-02-18T19:10:56.305Z,95436.06
2023-02-18T19:13:28.484Z,95424.00
2023-02-18T19:16:15.434Z,95425.03
2023-02-18T19:18:42.167Z,95434.75
2023-02-18T19:21:09.199Z,95432.16
2023-02-18T19:23:36.552Z,95437.94
2023-02-18T19:26:03.880Z,95431.59
2023-02-18T19:28:30.796Z,95445.81
2023-02-18T19:30:57.926Z,95447.91
2023-02-18T19:33:25.354Z,95436.41
2023-02-18T19:35:52.153Z,95439.00
2023-02-18T19:38:19.108Z,95438.00
2023-02-18T19:40:46.193Z,95452.22
2023-02-18T19:43:13.314Z,95449.69
2023-02-18T19:45:45.246Z,95451.22
2023-02-18T19:48:13.784Z,95449.59
2023-02-18T19:50:41.977Z,95454.13
2023-02-18T19:53:09.773Z,95449.09
2023-02-18T19:55:36.934Z,95450.41
2023-02-18T19:58:04.047Z,95441.16
2023-02-18T20:00:30.959Z,95445.53
2023-02-18T20:02:58.360Z,95449.78
2023-02-18T20:05:25.363Z,95452.94
2023-02-18T20:07:52.181Z,95455.28
2023-02-18T20:10:22.642Z,95448.94
2023-02-18T20:12:54.124Z,95464.47
2023-02-18T20:15:21.900Z,95448.94
2023-02-18T20:17:49.275Z,95439.75
2023-02-18T20:20:16.417Z,95455.78
2023-02-18T20:22:43.413Z,95465.88
2023-02-18T20:25:10.521Z,95455.59
2023-02-18T20:27:45.155Z,95449.78
2023-02-18T20:30:17.920Z,95450.06
2023-02-18T20:32:45.174Z,95448.72
2023-02-18T20:35:12.036Z,95451.88
2023-02-18T20:37:39.531Z,95460.22
2023-02-18T20:40:08.651Z,95457.97
2023-02-18T20:42:35.568Z,95453.59
2023-02-18T20:45:02.541Z,95459.59
2023-02-18T20:47:29.412Z,95463.84
2023-02-18T20:49:56.269Z,95456.06
2023-02-18T20:52:24.052Z,95458.97
2023-02-18T20:54:50.751Z,95469.19
2023-02-18T20:57:17.942Z,95454.22
2023-02-18T20:59:45.882Z,95465.03
2023-02-18T21:02:14.095Z,95466.91
2023-02-18T21:04:40.806Z,95463.94
2023-02-18T21:07:07.725Z,95463.97
2023-02-18T21:09:34.539Z,95433.66
2023-02-18T21:12:01.409Z,95450.72
2023-02-18T21:14:28.251Z,95451.25
2023-02-18T21:16:55.117Z,95455.97
2023-02-18T21:19:21.912Z,95438.06
2023-02-18T21:21:48.824Z,95439.34
2023-02-18T21:24:15.701Z,95450.72
2023-02-18T21:26:42.832Z,95450.69
2023-02-18T21:29:09.850Z,95448.34
2023-02-18T21:31:39.981Z,95452.50
2023-02-18T21:34:10.166Z,95434.56
2023-02-18T21:36:37.175Z,95443.81
2023-02-18T21:39:06.778Z,95432.53
2023-02-18T21:41:37.127Z,95441.72
2023-02-18T21:44:05.069Z,95442.19
2023-02-18T21:46:34.240Z,95439.25
2023-02-18T21:49:06.988Z,95439.19
2023-02-18T21:51:59.156Z,95432.09
2023-02-18T21:54:33.859Z,95431.66
2023-02-18T21:57:04.004Z,95435.94
2023-02-18T21:59:32.259Z,95417.75
2023-02-18T22:02:02.299Z,95425.63
2023-02-18T22:04:30.974Z,95427.38
2023-02-18T22:06:58.488Z,95423.75
2023-02-18T22:09:25.854Z,95407.88
2023-02-18T22:11:52.939Z,95401.00
2023-02-18T22:14:19.997Z,95409.69
2023-02-18T22:16:46.913Z,95409.44
2023-02-18T22:19:14.632Z,95402.09
2023-02-18T22:21:42.160Z,95413.97
2023-02-18T22:24:10.992Z,95406.78
2023-02-18T22:26:37.782Z,95417.56
2023-02-18T22:29:04.965Z,95423.91
2023-02-18T22:31:33.048Z,95412.50
2023-02-18T22:34:00.847Z,95413.47
2023-02-18T22:36:28.597Z,95418.84
2023-02-18T22:38:57.585Z,95419.09
2023-02-18T22:41:26.324Z,95429.06
2023-02-18T22:43:57.631Z,95413.44
2023-02-18T22:46:25.273Z,95415.44
2023-02-18T22:48:53.280Z,95415.53
2023-02-18T22:51:25.199Z,95395.81
2023-02-18T22:53:55.378Z,95413.59
2023-02-18T22:56:25.063Z,95400.50
2023-02-18T22:58:55.617Z,95396.09
2023-02-18T23:01:26.479Z,95418.31
2023-02-18T23:03:53.672Z,95403.09
2023-02-18T23:06:22.653Z,95394.78
2023-02-18T23:08:50.259Z,95398.25
2023-02-18T23:11:19.651Z,95394.84
2023-02-18T23:14:06.656Z,95384.31
2023-02-18T23:16:56.003Z,95401.00
2023-02-18T23:19:26.097Z,95405.56
2023-02-18T23:21:53.036Z,95394.34
2023-02-18T23:24:20.602Z,95398.72
2023-02-18T23:26:47.433Z,95393.97
2023-02-18T23:29:14.925Z,95401.41
2023-02-18T23:31:41.875Z,95393.97
2023-02-18T23:34:13.101Z,95395.63
2023-02-18T23:36:40.323Z,95397.25
2023-02-18T23:39:10.374Z,95393.69
2023-02-18T23:41:37.765Z,95396.34
2023-02-18T23:44:07.518Z,95391.91
2023-02-18T23:46:34.683Z,95403.97
2023-02-18T23:49:01.843Z,95382.88
2023-02-18T23:51:29.806Z,95403.59
2023-02-18T23:53:57.045Z,95393.97
2023-02-18T23:56:27.766Z,95382.00
2023-02-18T23:58:57.491Z,95383.00
